This is the latest recevied weather packets stored in our database for station/object N0EDB-13. If no packets are shown the sender has not sent any weather packets the latest 10 day(s).
| Time | Temp. | Humidity | Pressure | Rain* | Wind** | Luminosity | Snow |
|---|---|---|---|---|---|---|---|
| 1777943111 | 12.78° C | 71% | 1486.3 hPa | 0 mm | - | 21 W/m² | - |
| 1777942811 | 13.89° C | 68% | 1483.4 hPa | 0 mm | - | 23 W/m² | - |
| 1777942511 | 14.44° C | 55% | 1481.4 hPa | 0 mm | - | 19 W/m² | - |
| 1777942210 | 14.44° C | 53% | 1481 hPa | 0 mm | - | 14 W/m² | - |
| 1777941910 | 14.44° C | 54% | 1480.5 hPa | 0 mm | - | 18 W/m² | - |
| 1777941610 | 15° C | 54% | 1480.2 hPa | 0 mm | - | 36 W/m² | - |
| 1777941310 | 15° C | 54% | 1480 hPa | 0 mm | - | 61 W/m² | - |
| 1777941009 | 15° C | 54% | 1479.8 hPa | 0 mm | - | 57 W/m² | - |
| 1777940708 | 15° C | 53% | 1479.6 hPa | 0 mm | - | 64 W/m² | - |
| 1777940408 | 15° C | 53% | 1479.4 hPa | 0 mm | - | 92 W/m² | - |
| 1777940107 | 15° C | 53% | 1479.5 hPa | 0 mm | - | 104 W/m² | - |
| 1777939806 | 15° C | 54% | 1479.9 hPa | 0 mm | - | 113 W/m² | - |
| 1777939506 | 15° C | 56% | 1480.1 hPa | 0 mm | - | 122 W/m² | - |
| 1777939205 | 14.44° C | 55% | 1480.2 hPa | 0 mm | - | 133 W/m² | - |
| 1777938904 | 14.44° C | 56% | 1480.3 hPa | 0 mm | - | 151 W/m² | - |
| 1777938603 | 14.44° C | 55% | 1480.6 hPa | 0 mm | - | 141 W/m² | - |
| 1777938302 | 14.44° C | 57% | 1480.8 hPa | 0 mm | - | 135 W/m² | - |
| 1777938001 | 14.44° C | 56% | 1481.6 hPa | 0 mm | - | 101 W/m² | - |
| 1777937701 | 13.89° C | 63% | 1482.5 hPa | 0 mm | - | 94 W/m² | - |
| 1777937400 | 13.89° C | 66% | 1482.4 hPa | 0 mm | - | 99 W/m² | - |
| 1777937100 | 14.44° C | 62% | 1481.9 hPa | 0 mm | - | 95 W/m² | - |
| 1777936800 | 14.44° C | 61% | 1480.7 hPa | 0 mm | - | 101 W/m² | - |
| 1777936499 | 15.56° C | 58% | 1478 hPa | 0 mm | - | 97 W/m² | - |
| 1777936198 | 16.67° C | 45% | 1474.4 hPa | 0 mm | - | 74 W/m² | - |
| 1777935897 | 17.22° C | 42% | 1473.3 hPa | 0 mm | - | 56 W/m² | - |
* Rain latest hour (hover to see other rain measurements)
** Current wind speed in m/s (hover to see current wind gust speed)